"WATCHING THE WEATHER TO PROTECT LIFE AND PROPERTY"


Aviation
Satellite (InfraRed)


KFLL 240153Z 12012KT 10SM FEW024 BKN250 29/24 A3003 RMK AO2 SLP167 T02890239
KMCO 240153Z 13006KT 10SM FEW090 FEW300 26/24 A3003 RMK AO2 SLP168 T02610239
KMIA 240153Z 10008KT 10SM FEW026 SCT300 29/23 A3004 RMK AO2 SLP171 T02890233
KTPA 240153Z 33004KT 10SM CLR 28/23 A3002 RMK AO2 SLP165 T02780233
MDPP 240000Z 12010KT 9999 FEW018 26/25 Q1015
MDSD 240200Z 05005KT 9999 FEW018 25/22 Q1015
MKJS 240200Z 22004KT 9999 FEW022 28/24 Q1013
MTPP 232100Z 29012KT 9999 SCT026 32/22 Q1011 A2988
MUHA 240155Z VRB02KT 9000 SCT025 BKN060 25/22 Q1015
MYNN 240100Z 10004KT 9999 VCSH FEW018TCU SCT040 BKN220 29/25 A3005 RMK VCSH/TCU N
TAPA 240200Z 08008KT 9999 VCSH SCT018 SCT036 27/23 Q1016 NOSIG
TFFF 240230Z AUTO 09004KT 9999 FEW028 SCT060 26/24 Q1016 NOSIG
TFFR 240230Z AUTO 12003KT 9999 FEW026 BKN100 26/23 Q1016 NOSIG
TIST 240153Z 08007KT 10SM CLR 28/23 A3001 RMK AO2 SLP163 T02780233
TISX 240153Z 04005KT 10SM SCT050 25/23 A3002 RMK AO2 SLP162 T02500228
TJSJ 240156Z 08008KT 10SM FEW027 SCT060 26/23 A3002 RMK AO2 RAB43E53 SLP165 VCSH NW P0000 T02610228
TKPK 240100Z 06008KT 9999 FEW020 26/23 Q1016
TNCA 240200Z 08013KT 9999 FEW020 28/24 Q1012 A2989 NOSIG
TNCB 240155Z AUTO 08012KT 040V110 9999 FEW019/// 27/23 Q1012
TNCC 240200Z 10011KT 9999 FEW018 27/23 Q1013 NOSIG
TNCE 240155Z AUTO 08009KT 040V110 //// // ///////// 26/23 Q1016 RE//
TNCM 240200Z 08009KT 9999 -SHRA SCT019 28/24 Q1016 A3002 NOSIG
TQPF 232300Z 08011KT 9999 FEW021 28/22 Q1015
TUPJ 240100Z 08006KT 030V130 9999 FEW018 27/23 Q1017 RMK A3002